Time;durP1;ratioP1;P1;durP2;ratioP2;P2;SDS_P1;SDS_P2;PMS_P1;PMS_P2;Temp;Humidity;BMP_temperature;BMP_pressure;BME280_temperature;BME280_humidity;BME280_pressure;Samples;Min_cycle;Max_cycle;Signal;HPM_P1;HPM_P2
2022/09/09 00:01:57;;;;;;;;;0.50;0.00;;;;;18.80;58.97;100484.06;5019564;28;45327;-67
2022/09/09 00:04:27;;;;;;;;;0.33;0.00;;;;;19.08;58.92;100524.34;5020383;28;45453;-67
2022/09/09 00:07:05;;;;;;;;;1.00;1.00;;;;;19.06;59.10;100531.81;5034608;28;47572;-68
2022/09/09 00:09:50;;;;;;;;;1.33;1.00;;;;;19.06;59.26;100536.38;5021727;28;45450;-69
2022/09/09 00:12:39;;;;;;;;;0.67;0.67;;;;;19.03;59.39;100536.78;5018043;28;45286;-68
2022/09/09 00:15:13;;;;;;;;;2.50;1.00;;;;;18.80;59.59;100511.00;5019331;28;45467;-68
2022/09/09 00:17:48;;;;;;;;;2.50;1.25;;;;;18.34;59.36;100430.06;5028391;28;46484;-69
2022/09/09 00:20:27;;;;;;;;;1.00;1.00;;;;;18.96;59.30;100531.34;5030512;28;45362;-68
2022/09/09 00:23:19;;;;;;;;;1.00;1.00;;;;;18.99;59.44;100535.50;5019877;28;45399;-70
2022/09/09 00:26:10;;;;;;;;;1.50;1.50;;;;;18.98;59.36;100533.84;5036172;28;45641;-69
2022/09/09 00:29:01;;;;;;;;;1.33;0.33;;;;;18.48;59.52;100463.25;5045786;28;47804;-67
2022/09/09 00:31:29;;;;;;;;;1.33;1.33;;;;;18.84;60.04;100538.38;5051901;28;45491;-67
2022/09/09 00:34:02;;;;;;;;;2.00;2.00;;;;;18.77;60.17;100546.44;5019107;28;45329;-69
2022/09/09 00:36:28;;;;;;;;;2.00;2.00;;;;;18.77;60.14;100546.44;5022662;28;45313;-68
2022/09/09 00:38:59;;;;;;;;;1.33;1.33;;;;;18.68;60.49;100514.50;5018353;28;47345;-68
2022/09/09 00:41:33;;;;;;;;;1.00;1.00;;;;;18.79;60.20;100530.88;5026748;28;45424;-67
2022/09/09 00:44:21;;;;;;;;;2.00;1.00;;;;;18.58;60.52;100500.56;5039214;28;45261;-67
2022/09/09 00:46:55;;;;;;;;;1.67;1.67;;;;;18.69;60.57;100525.06;5037633;28;45578;-68
2022/09/09 00:49:35;;;;;;;;;0.33;0.33;;;;;18.71;60.65;100519.47;5038665;28;46765;-67
2022/09/09 00:52:10;;;;;;;;;2.00;1.00;;;;;18.71;60.98;100532.94;5039013;28;45475;-67
2022/09/09 00:54:52;;;;;;;;;2.00;1.00;;;;;18.50;60.93;100502.41;5024339;28;45282;-67
2022/09/09 00:57:17;;;;;;;;;2.00;2.00;;;;;18.69;60.80;100521.56;5026777;28;45476;-67
2022/09/09 00:59:48;;;;;;;;;1.33;1.00;;;;;18.62;61.06;100504.50;5026148;28;47383;-67
2022/09/09 01:02:28;;;;;;;;;0.00;0.00;;;;;18.66;60.70;100509.31;5018656;28;45330;-68
2022/09/09 01:04:54;;;;;;;;;1.00;0.00;;;;;18.66;61.34;100513.88;5025410;28;45314;-68
2022/09/09 01:07:20;;;;;;;;;1.00;1.00;;;;;18.63;61.20;100506.22;5038783;28;45537;-69
2022/09/09 01:10:03;;;;;;;;;1.67;1.00;;;;;18.53;61.29;100498.47;5038215;28;46419;-68
2022/09/09 01:12:47;;;;;;;;;2.67;2.67;;;;;18.63;61.20;100508.91;5038318;28;45331;-66
2022/09/09 01:15:21;;;;;;;;;4.25;2.25;;;;;18.48;61.20;100491.00;5020615;28;45662;-68
2022/09/09 01:17:55;;;;;;;;;1.00;1.00;;;;;18.48;61.21;100496.38;5025625;28;45547;-67
2022/09/09 01:20:25;;;;;;;;;3.33;2.00;;;;;18.47;61.52;100493.91;5018962;28;48578;-67
2022/09/09 01:23:18;;;;;;;;;1.00;1.00;;;;;18.01;61.47;100415.66;5018069;28;45270;-68
2022/09/09 01:25:43;;;;;;;;;1.00;1.00;;;;;18.50;61.64;100513.16;5018219;28;45264;-68
2022/09/09 01:28:16;;;;;;;;;2.67;2.67;;;;;18.12;61.67;100433.94;5019623;28;45180;-67
2022/09/09 01:30:42;;;;;;;;;1.00;0.33;;;;;18.53;61.53;100503.84;5036663;28;45560;-67
2022/09/09 01:33:13;;;;;;;;;1.00;1.00;;;;;18.61;61.93;100513.59;5037841;28;45414;-66
2022/09/09 01:35:57;;;;;;;;;3.33;1.00;;;;;18.63;61.37;100504.34;5037710;28;45319;-67
2022/09/09 01:38:24;;;;;;;;;3.00;1.00;;;;;18.46;61.49;100481.47;5027569;28;45515;-68
2022/09/09 01:40:52;;;;;;;;;2.00;2.00;;;;;18.62;61.39;100507.19;5018752;28;45631;-67
2022/09/09 01:43:19;;;;;;;;;2.00;0.33;;;;;18.65;61.56;100514.91;5016696;28;45510;-67
2022/09/09 01:45:49;;;;;;;;;2.00;1.00;;;;;18.38;61.58;100468.19;5018013;28;45269;-67
2022/09/09 01:48:16;;;;;;;;;1.00;1.00;;;;;18.63;61.74;100522.38;5018480;28;45522;-67
2022/09/09 01:50:41;;;;;;;;;0.33;0.33;;;;;18.60;61.67;100520.03;5017947;28;46101;-69
2022/09/09 01:53:16;;;;;;;;;3.33;2.00;;;;;18.54;61.76;100527.88;5091273;27;45505;-67
2022/09/09 01:55:58;;;;;;;;;1.00;1.00;;;;;18.61;61.71;100532.44;5077588;27;45164;-68
2022/09/09 01:58:33;;;;;;;;;3.00;1.67;;;;;18.15;61.41;100441.59;5075156;27;45288;-67
2022/09/09 02:01:03;;;;;;;;;2.00;1.00;;;;;18.67;61.70;100504.78;5089679;27;45597;-67
2022/09/09 02:03:33;;;;;;;;;4.67;2.00;;;;;18.69;61.51;100502.69;5082793;27;45769;-68
2022/09/09 02:06:04;;;;;;;;;3.00;1.00;;;;;18.68;61.49;100484.88;5072543;28;45366;-67
2022/09/09 02:08:42;;;;;;;;;2.67;2.00;;;;;18.51;62.08;100490.59;5073921;28;45220;-67
2022/09/09 02:11:11;;;;;;;;;0.67;0.67;;;;;18.63;61.82;100509.72;5073939;28;45324;-66
2022/09/09 02:13:38;;;;;;;;;3.33;2.67;;;;;18.62;61.79;100509.88;5071997;28;47287;-67
2022/09/09 02:16:07;;;;;;;;;4.00;2.33;;;;;18.62;61.75;100507.19;5073660;28;45447;-66
2022/09/09 02:18:53;;;;;;;;;0.33;0.33;;;;;18.13;61.70;100422.13;5074493;28;45474;-68
2022/09/09 02:21:19;;;;;;;;;3.00;0.00;;;;;18.55;61.46;100485.63;5072730;27;45562;-67
2022/09/09 02:23:47;;;;;;;;;1.33;1.33;;;;;18.61;61.89;100500.97;5073637;27;45823;-66
2022/09/09 02:26:20;;;;;;;;;2.67;1.00;;;;;18.63;61.59;100492.75;5075958;27;45526;-67
2022/09/09 02:28:46;;;;;;;;;2.67;1.67;;;;;18.43;61.62;100477.34;5078075;27;45909;-68
2022/09/09 02:31:14;;;;;;;;;4.33;1.33;;;;;18.08;62.27;100422.75;5094080;27;45391;-68
2022/09/09 02:33:45;;;;;;;;;2.00;2.00;;;;;18.44;62.14;100489.75;5093249;27;46049;-67
2022/09/09 02:36:12;;;;;;;;;1.33;1.00;;;;;18.42;62.23;100494.50;5084758;27;45485;-67
2022/09/09 02:38:45;;;;;;;;;3.67;1.33;;;;;18.42;62.48;100491.81;5072034;27;45616;-67
2022/09/09 02:41:10;;;;;;;;;4.33;1.00;;;;;18.00;62.23;100414.81;5086201;27;45596;-68
2022/09/09 02:43:37;;;;;;;;;2.33;2.00;;;;;18.41;62.50;100490.13;5093162;27;45899;-66
2022/09/09 02:46:26;;;;;;;;;1.67;0.33;;;;;18.36;62.58;100491.78;5093556;27;45299;-67
2022/09/09 02:48:59;;;;;;;;;2.00;2.00;;;;;17.76;62.68;100391.13;5087888;27;45350;-66
2022/09/09 02:51:57;;;;;;;;;2.00;1.00;;;;;18.39;62.59;100484.13;5078293;27;45474;-67
2022/09/09 02:54:30;;;;;;;;;1.67;1.67;;;;;18.37;62.63;100483.50;5110290;27;45697;-67
2022/09/09 02:56:58;;;;;;;;;3.00;2.00;;;;;18.37;62.58;100479.97;5110949;27;45465;-68
2022/09/09 02:59:25;;;;;;;;;3.00;1.00;;;;;18.36;62.83;100473.75;5113748;27;46242;-67
2022/09/09 03:01:51;;;;;;;;;1.33;1.00;;;;;18.31;62.82;100481.63;5114328;27;45298;-67
2022/09/09 03:04:16;;;;;;;;;1.50;1.00;;;;;18.12;62.84;100452.75;5095937;27;46189;-67
2022/09/09 03:06:42;;;;;;;;;2.00;2.00;;;;;18.30;63.00;100479.97;5082123;27;45418;-67
2022/09/09 03:09:10;;;;;;;;;2.67;1.33;;;;;18.21;63.16;100479.28;5073633;27;46271;-67
2022/09/09 03:11:35;;;;;;;;;3.67;2.00;;;;;18.30;63.43;100477.25;5079881;27;45418;-67
2022/09/09 03:14:01;;;;;;;;;1.00;1.00;;;;;18.21;63.20;100471.22;5079236;27;45461;-67
2022/09/09 03:16:27;;;;;;;;;1.67;1.67;;;;;18.31;63.27;100486.16;5079355;28;45329;-68
2022/09/09 03:18:52;;;;;;;;;1.00;1.00;;;;;18.35;63.32;100485.56;5078079;28;45339;-65
2022/09/09 03:21:18;;;;;;;;;2.33;2.00;;;;;18.17;63.15;100455.66;5079680;27;45359;-67
2022/09/09 03:23:44;;;;;;;;;6.33;4.00;;;;;18.36;62.81;100481.84;5083383;27;45608;-67
2022/09/09 03:26:10;;;;;;;;;1.67;1.67;;;;;18.35;63.15;100477.50;5097938;27;45382;-68
2022/09/09 03:28:35;;;;;;;;;3.33;1.00;;;;;18.34;62.93;100491.97;5091987;27;45391;-70
2022/09/09 03:31:03;;;;;;;;;1.25;1.25;;;;;18.38;63.12;100484.31;5079040;27;45382;-67
2022/09/09 03:33:29;;;;;;;;;3.00;2.00;;;;;18.34;63.01;100478.53;5077424;27;46993;-67
2022/09/09 03:35:56;;;;;;;;;4.00;3.00;;;;;18.20;62.99;100466.03;5079428;28;45339;-66
2022/09/09 03:38:23;;;;;;;;;2.33;1.00;;;;;18.13;63.05;100459.81;5079274;28;45371;-66
2022/09/09 03:40:56;;;;;;;;;1.00;0.00;;;;;17.71;63.18;100399.81;5079448;28;45419;-67
2022/09/09 03:43:23;;;;;;;;;4.00;2.00;;;;;18.23;63.35;100481.81;5060272;27;47853;-67
2022/09/09 03:45:48;;;;;;;;;1.67;1.67;;;;;18.18;63.26;100476.16;5079013;28;45469;-67
2022/09/09 03:48:15;;;;;;;;;2.67;1.33;;;;;17.98;63.33;100437.56;5060683;27;45859;-68
2022/09/09 03:50:45;;;;;;;;;2.00;1.67;;;;;18.18;63.27;100473.47;5079099;28;45241;-68
2022/09/09 03:53:10;;;;;;;;;4.00;3.67;;;;;18.23;63.43;100487.19;5078184;27;46515;-68
2022/09/09 03:55:35;;;;;;;;;3.00;2.00;;;;;18.13;63.44;100459.81;5090994;27;45354;-68
2022/09/09 03:58:01;;;;;;;;;3.00;1.00;;;;;18.16;63.48;100480.91;5078842;27;45213;-67
2022/09/09 04:00:26;;;;;;;;;2.67;1.67;;;;;18.17;63.42;100485.28;5089389;27;45446;-68
2022/09/09 04:02:54;;;;;;;;;5.33;3.33;;;;;18.00;63.87;100470.47;5098724;27;45548;-66
2022/09/09 04:05:19;;;;;;;;;3.67;2.00;;;;;18.02;63.86;100468.44;5078928;27;45474;-68
2022/09/09 04:07:45;;;;;;;;;2.00;2.00;;;;;18.06;64.30;100475.09;5060461;28;45292;-67
2022/09/09 04:10:10;;;;;;;;;3.33;1.67;;;;;17.98;64.23;100469.84;5090483;27;45474;-67
2022/09/09 04:12:35;;;;;;;;;5.00;5.00;;;;;17.95;64.86;100473.78;5078610;27;45825;-67
2022/09/09 04:15:01;;;;;;;;;2.00;2.00;;;;;17.93;64.87;100473.97;5077949;27;54494;-66
2022/09/09 04:17:27;;;;;;;;;3.67;3.67;;;;;17.94;65.05;100472.94;5099036;27;45505;-67
2022/09/09 04:19:53;;;;;;;;;3.67;2.00;;;;;17.87;65.01;100460.50;5098510;27;45553;-68
2022/09/09 04:22:18;;;;;;;;;7.67;3.00;;;;;17.85;64.79;100463.41;5098470;27;45654;-66
2022/09/09 04:24:43;;;;;;;;;4.00;2.33;;;;;17.91;65.13;100478.72;5084975;27;45454;-67
2022/09/09 04:27:09;;;;;;;;;4.00;3.67;;;;;17.87;65.03;100472.09;5074087;27;58952;-67
2022/09/09 04:29:34;;;;;;;;;3.00;3.00;;;;;17.92;65.05;100479.56;5097682;27;45521;-66
2022/09/09 04:32:00;;;;;;;;;3.67;2.00;;;;;17.93;65.17;100479.34;5098367;27;47354;-67
2022/09/09 04:34:25;;;;;;;;;2.67;2.00;;;;;17.70;65.03;100441.16;5097450;27;45203;-67
2022/09/09 04:36:51;;;;;;;;;3.67;2.00;;;;;17.74;65.24;100457.72;5079706;27;45424;-67
2022/09/09 04:39:17;;;;;;;;;2.00;0.67;;;;;17.91;65.42;100477.91;5073963;28;45523;-67
2022/09/09 04:41:42;;;;;;;;;2.67;1.67;;;;;17.80;65.14;100459.63;5072695;27;46311;-67
2022/09/09 04:44:07;;;;;;;;;5.00;2.00;;;;;17.92;65.05;100480.38;5097825;27;45349;-67
2022/09/09 04:46:34;;;;;;;;;2.00;2.00;;;;;17.87;65.57;100474.78;5098402;27;45521;-67
2022/09/09 04:48:59;;;;;;;;;3.67;2.00;;;;;17.93;65.40;100475.84;5097605;27;45260;-67
2022/09/09 04:51:25;;;;;;;;;1.67;1.67;;;;;17.83;65.11;100464.63;5080119;27;46498;-67
2022/09/09 04:53:51;;;;;;;;;2.67;2.00;;;;;17.89;64.92;100475.41;5079660;27;45919;-68
2022/09/09 04:56:18;;;;;;;;;2.67;2.33;;;;;17.84;65.22;100466.28;5098267;27;45228;-68
2022/09/09 04:58:43;;;;;;;;;4.33;3.00;;;;;17.87;65.12;100477.47;5087941;27;45427;-66
2022/09/09 05:01:11;;;;;;;;;6.00;4.00;;;;;17.93;65.09;100495.50;5077205;27;46421;-67
2022/09/09 05:03:37;;;;;;;;;2.67;1.00;;;;;17.79;65.14;100472.22;5059010;28;45639;-68
2022/09/09 05:06:08;;;;;;;;;2.33;1.00;;;;;17.80;65.19;100475.75;5077650;27;45315;-69
2022/09/09 05:08:34;;;;;;;;;2.00;2.00;;;;;17.72;65.48;100457.94;5080818;27;45466;-68
2022/09/09 05:10:59;;;;;;;;;1.00;0.50;;;;;17.88;65.37;100487.19;5097270;27;45861;-67
2022/09/09 05:13:26;;;;;;;;;3.00;3.00;;;;;17.80;65.41;100487.34;5071047;28;45990;-67
2022/09/09 05:15:53;;;;;;;;;3.00;2.67;;;;;17.87;65.39;100503.53;5077409;28;45341;-66
2022/09/09 05:18:18;;;;;;;;;2.67;2.67;;;;;17.82;65.39;100496.06;5073538;27;45496;-67
2022/09/09 05:20:43;;;;;;;;;3.33;2.33;;;;;17.85;65.57;100501.03;5097593;27;46128;-67
2022/09/09 05:23:11;;;;;;;;;2.67;2.33;;;;;17.85;66.11;100511.81;5097552;27;45493;-67
2022/09/09 05:25:36;;;;;;;;;5.67;4.67;;;;;17.70;66.07;100478.81;5097460;27;45505;-66
2022/09/09 05:28:01;;;;;;;;;2.33;2.33;;;;;17.89;66.11;100510.38;5093471;27;45478;-68
2022/09/09 05:30:27;;;;;;;;;2.00;2.00;;;;;17.77;65.87;100487.72;5085724;27;45557;-67
2022/09/09 05:32:55;;;;;;;;;3.00;3.00;;;;;17.67;65.76;100468.41;5077181;28;53948;-68
2022/09/09 05:35:23;;;;;;;;;2.33;2.33;;;;;17.40;65.84;100415.50;5074342;28;45717;-67
2022/09/09 05:37:48;;;;;;;;;3.67;3.67;;;;;17.91;66.00;100513.69;5093211;27;45380;-73
2022/09/09 05:40:14;;;;;;;;;5.33;5.33;;;;;17.84;65.80;100503.94;5058650;27;48422;-68
2022/09/09 05:42:40;;;;;;;;;2.67;2.33;;;;;17.88;65.48;100505.19;5083589;27;45312;-69
2022/09/09 05:45:07;;;;;;;;;6.00;3.00;;;;;17.84;65.74;100494.00;5076754;28;45331;-66
2022/09/09 05:47:33;;;;;;;;;3.00;1.33;;;;;17.80;65.61;100483.81;5076966;27;45494;-67
2022/09/09 05:49:58;;;;;;;;;4.00;3.33;;;;;17.96;65.72;100504.19;5076962;27;46115;-69
2022/09/09 05:52:25;;;;;;;;;2.00;2.00;;;;;17.42;65.85;100416.97;5076590;28;45280;-69
2022/09/09 05:54:50;;;;;;;;;2.67;2.00;;;;;18.01;65.76;100505.25;5077010;27;45203;-67
2022/09/09 05:57:16;;;;;;;;;5.00;3.00;;;;;18.05;65.73;100508.41;5077230;28;45257;-69
2022/09/09 05:59:42;;;;;;;;;6.33;4.00;;;;;17.92;65.82;100491.16;5076829;28;46508;-68
2022/09/09 06:02:08;;;;;;;;;2.00;2.00;;;;;18.04;65.88;100501.38;5077820;28;45295;-68
2022/09/09 06:04:34;;;;;;;;;3.67;3.67;;;;;18.07;65.93;100496.41;5078373;28;45337;-68
2022/09/09 06:07:00;;;;;;;;;5.33;4.00;;;;;17.90;66.25;100460.94;5077073;27;45363;-68
2022/09/09 06:09:26;;;;;;;;;4.00;4.00;;;;;17.93;65.77;100471.28;5076799;28;45573;-67
2022/09/09 06:11:52;;;;;;;;;4.00;2.33;;;;;18.09;65.57;100490.84;5081079;27;45599;-67
2022/09/09 06:14:21;;;;;;;;;9.00;6.67;;;;;18.11;65.62;100486.06;5097152;27;45292;-74
2022/09/09 06:16:46;;;;;;;;;1.33;1.33;;;;;18.20;65.52;100509.09;5083452;27;45531;-68
2022/09/09 06:19:12;;;;;;;;;4.00;1.67;;;;;18.14;65.79;100508.03;5097046;27;45766;-73
2022/09/09 06:21:38;;;;;;;;;3.00;3.00;;;;;18.21;65.54;100510.75;5097349;27;45453;-69
2022/09/09 06:24:05;;;;;;;;;2.00;2.00;;;;;18.08;65.87;100473.03;5097284;27;45321;-71
2022/09/09 06:26:40;;;;;;;;;2.00;1.67;;;;;18.33;65.04;100508.31;5097127;27;45512;-70
2022/09/09 06:29:06;;;;;;;;;5.33;3.00;;;;;18.38;65.04;100516.63;5096921;27;46478;-68
2022/09/09 06:31:36;;;;;;;;;6.67;4.00;;;;;18.40;64.89;100512.69;5096759;27;45455;-69
2022/09/09 06:34:05;;;;;;;;;2.00;2.00;;;;;18.46;64.99;100511.91;5096970;27;45291;-69
2022/09/09 06:36:33;;;;;;;;;4.67;4.67;;;;;18.44;64.88;100489.75;5097151;27;45585;-68
2022/09/09 06:38:59;;;;;;;;;2.00;2.00;;;;;18.44;64.52;100499.69;5096552;27;46383;-69
2022/09/09 06:41:27;;;;;;;;;3.67;2.67;;;;;18.47;64.52;100500.13;5090679;27;45415;-69
2022/09/09 06:43:52;;;;;;;;;3.00;2.00;;;;;18.51;64.28;100500.53;5061536;28;45277;-69
2022/09/09 06:46:21;;;;;;;;;2.00;2.00;;;;;18.58;63.98;100511.31;5079641;28;45394;-70
2022/09/09 06:48:47;;;;;;;;;2.67;2.00;;;;;18.64;64.00;100513.25;5061495;27;48035;-68
2022/09/09 06:51:18;;;;;;;;;2.33;2.00;;;;;18.67;63.76;100510.16;5079845;28;45413;-68
2022/09/09 06:53:45;;;;;;;;;3.33;3.00;;;;;18.69;63.60;100513.47;5079579;27;45328;-68
2022/09/09 06:56:11;;;;;;;;;4.00;4.00;;;;;18.78;63.37;100517.63;5078902;28;45398;-68
2022/09/09 06:58:42;;;;;;;;;4.33;4.00;;;;;18.76;63.21;100498.16;5078580;27;47038;-69
2022/09/09 07:01:09;;;;;;;;;2.00;2.00;;;;;18.81;62.69;100487.59;5061210;28;45679;-68
2022/09/09 07:03:35;;;;;;;;;1.00;1.00;;;;;18.98;62.51;100502.34;5079587;27;45244;-71
2022/09/09 07:06:01;;;;;;;;;3.00;1.33;;;;;18.93;62.15;100510.22;5061522;28;45488;-71
2022/09/09 07:08:26;;;;;;;;;1.67;1.67;;;;;19.06;61.94;100523.72;5061050;28;48246;-70
2022/09/09 07:10:59;;;;;;;;;5.00;5.00;;;;;19.13;61.86;100523.72;5079433;28;45506;-70
2022/09/09 07:13:27;;;;;;;;;1.33;1.33;;;;;19.12;61.81;100513.97;5061294;28;45284;-70
2022/09/09 07:15:52;;;;;;;;;3.00;3.00;;;;;19.24;61.63;100519.59;5073465;27;45312;-73
2022/09/09 07:18:19;;;;;;;;;6.33;3.33;;;;;19.34;61.48;100528.94;5079181;27;46416;-69
2022/09/09 07:20:55;;;;;;;;;6.25;2.00;;;;;19.26;61.30;100510.28;5079210;28;45481;-68
2022/09/09 07:23:20;;;;;;;;;2.00;2.00;;;;;19.35;61.53;100511.72;5079532;27;45243;-71
2022/09/09 07:25:47;;;;;;;;;3.67;3.67;;;;;19.57;61.23;100530.41;5091676;27;45233;-71
2022/09/09 07:28:12;;;;;;;;;4.00;3.00;;;;;19.59;60.70;100520.25;5096886;27;45837;-73
2022/09/09 07:30:38;;;;;;;;;0.33;0.33;;;;;19.70;60.39;100542.03;5099674;27;45449;-71
2022/09/09 07:33:04;;;;;;;;;7.67;4.67;;;;;19.42;60.39;100482.03;5079290;27;45442;-70
2022/09/09 07:35:30;;;;;;;;;5.00;5.00;;;;;19.85;60.17;100544.53;5086001;27;45455;-74
2022/09/09 07:37:55;;;;;;;;;1.33;1.33;;;;;19.93;60.02;100549.69;5075603;28;48470;-72
2022/09/09 07:40:22;;;;;;;;;2.00;0.67;;;;;19.90;58.70;100514.19;5081550;27;45936;-71
2022/09/09 07:42:47;;;;;;;;;3.33;2.00;;;;;20.07;58.52;100533.47;5080892;27;45528;-71
2022/09/09 07:45:14;;;;;;;;;2.67;2.00;;;;;19.75;58.17;100468.56;5059381;28;45640;-69
2022/09/09 07:47:41;;;;;;;;;2.00;2.00;;;;;20.20;59.12;100539.66;5078860;28;45836;-71
2022/09/09 07:50:08;;;;;;;;;4.33;2.33;;;;;20.26;57.95;100549.63;5082010;28;45385;-71
2022/09/09 07:52:34;;;;;;;;;3.25;2.00;;;;;20.20;57.96;100555.84;5078100;28;45410;-70
2022/09/09 07:55:01;;;;;;;;;2.00;2.00;;;;;20.15;58.04;100523.28;5078586;28;45374;-69
2022/09/09 07:57:30;;;;;;;;;2.00;2.00;;;;;20.03;57.72;100543.88;5078590;27;45947;-71
2022/09/09 07:59:56;;;;;;;;;1.00;1.00;;;;;20.00;58.18;100533.47;5075768;28;45543;-71
2022/09/09 08:02:22;;;;;;;;;3.00;1.00;;;;;20.13;57.78;100559.63;5078545;28;45493;-71
2022/09/09 08:04:48;;;;;;;;;3.00;1.00;;;;;20.15;57.62;100552.13;5059372;28;45905;-70
2022/09/09 08:07:13;;;;;;;;;3.00;3.00;;;;;20.12;57.61;100552.56;5059834;28;46874;-71
2022/09/09 08:09:39;;;;;;;;;2.50;2.00;;;;;20.25;57.30;100569.56;5059562;28;45280;-72
2022/09/09 08:12:06;;;;;;;;;3.00;1.67;;;;;20.09;57.58;100543.03;5077708;27;45422;-72
2022/09/09 08:14:31;;;;;;;;;2.33;2.33;;;;;20.22;56.87;100569.13;5078469;28;45539;-72
2022/09/09 08:16:57;;;;;;;;;2.00;2.00;;;;;20.22;57.11;100574.53;5060593;28;46475;-71
2022/09/09 08:19:23;;;;;;;;;3.00;1.00;;;;;20.15;57.13;100558.34;5084142;27;45257;-70
2022/09/09 08:21:48;;;;;;;;;3.00;3.00;;;;;20.09;57.13;100570.00;5079557;27;45267;-71
2022/09/09 08:24:15;;;;;;;;;2.33;1.00;;;;;20.11;57.22;100577.91;5080557;27;45403;-72
2022/09/09 08:26:46;;;;;;;;;5.00;4.00;;;;;20.10;57.27;100560.88;5078200;27;46776;-71
2022/09/09 08:29:13;;;;;;;;;2.33;2.00;;;;;20.16;57.71;100584.31;5078548;28;45471;-73
2022/09/09 08:31:47;;;;;;;;;1.33;1.33;;;;;20.10;57.03;100582.47;5078274;28;45418;-71
2022/09/09 08:34:13;;;;;;;;;3.00;1.67;;;;;20.12;57.51;100580.38;5078811;28;45318;-71
2022/09/09 08:36:42;;;;;;;;;2.00;1.00;;;;;20.25;57.43;100577.66;5077768;28;45851;-69
2022/09/09 08:39:09;;;;;;;;;3.00;3.00;;;;;20.25;57.24;100566.88;5059697;28;45339;-70
2022/09/09 08:42:01;;;;;;;;;1.75;1.75;;;;;20.47;56.86;100572.84;5060182;28;45518;-71
2022/09/09 08:45:08;;;;;;;;;1.00;1.00;;;;;20.56;56.30;100579.66;5041642;28;45228;-71
2022/09/09 08:48:02;;;;;;;;;1.00;1.00;;;;;20.53;56.43;100571.16;5081556;27;46454;-70
2022/09/09 08:50:31;;;;;;;;;3.67;3.67;;;;;20.57;56.28;100561.59;5080169;27;45583;-71
2022/09/09 08:53:11;;;;;;;;;3.67;2.67;;;;;20.73;55.92;100581.88;5098632;27;45364;-70
2022/09/09 08:55:51;;;;;;;;;4.67;2.00;;;;;20.33;55.79;100534.22;5097011;27;45327;-70
2022/09/09 08:58:24;;;;;;;;;1.33;1.33;;;;;20.69;56.39;100588.78;5064078;27;47203;-70
2022/09/09 09:01:08;;;;;;;;;3.00;1.67;;;;;20.71;55.94;100590.22;5097236;27;45442;-69
2022/09/09 09:04:11;;;;;;;;;1.67;1.67;;;;;20.76;56.02;100587.69;5080060;27;45491;-70
2022/09/09 09:06:50;;;;;;;;;3.33;3.00;;;;;20.73;55.77;100581.88;5074437;27;45465;-69
2022/09/09 09:09:58;;;;;;;;;2.67;2.67;;;;;20.70;55.73;100583.16;5077303;28;45458;-71
2022/09/09 09:12:28;;;;;;;;;1.50;1.50;;;;;21.01;55.46;100595.06;5077305;28;45542;-71
2022/09/09 09:14:56;;;;;;;;;2.00;2.00;;;;;21.10;54.44;100593.78;5077437;28;45395;-71
2022/09/09 09:17:25;;;;;;;;;3.00;3.00;;;;;21.08;54.03;100590.47;5062004;28;45549;-71
2022/09/09 09:19:50;;;;;;;;;2.00;2.00;;;;;21.26;54.40;100620.34;5084888;27;45830;-71
2022/09/09 09:22:20;;;;;;;;;1.67;1.67;;;;;21.11;54.22;100590.03;5073183;27;45447;-68
2022/09/09 09:25:03;;;;;;;;;2.00;2.00;;;;;21.29;53.98;100625.31;5077034;28;45494;-70
2022/09/09 09:27:34;;;;;;;;;2.33;1.00;;;;;21.27;54.37;100608.47;5077329;27;45283;-71
2022/09/09 09:30:02;;;;;;;;;1.00;1.00;;;;;21.13;54.21;100596.03;5091931;27;45614;-69
2022/09/09 09:32:33;;;;;;;;;3.33;2.00;;;;;20.89;54.32;100576.84;5060010;28;46056;-70
2022/09/09 09:35:04;;;;;;;;;1.00;1.00;;;;;21.19;53.75;100625.72;5079298;28;45280;-71
2022/09/09 09:37:32;;;;;;;;;1.67;1.00;;;;;21.14;53.91;100632.84;5081374;28;45433;-70
2022/09/09 09:40:18;;;;;;;;;2.67;2.67;;;;;21.08;54.05;100641.81;5078445;28;46190;-69
2022/09/09 09:43:08;;;;;;;;;1.33;1.00;;;;;20.96;54.23;100626.25;5077290;28;45166;-71
2022/09/09 09:45:41;;;;;;;;;2.00;2.00;;;;;20.90;54.38;100626.31;5076097;28;45982;-72
2022/09/09 09:48:12;;;;;;;;;2.33;1.00;;;;;20.92;54.59;100646.66;5055322;28;45435;-70
2022/09/09 09:50:58;;;;;;;;;1.00;1.00;;;;;20.92;54.70;100645.84;5079521;27;45725;-69
2022/09/09 09:53:31;;;;;;;;;1.00;1.00;;;;;20.90;54.95;100642.53;5095651;27;45193;-69
2022/09/09 09:56:06;;;;;;;;;1.33;1.33;;;;;20.85;55.02;100642.34;5075844;27;45543;-72
2022/09/09 09:58:49;;;;;;;;;2.00;2.00;;;;;20.50;55.37;100571.59;5077062;28;45438;-71
2022/09/09 10:01:24;;;;;;;;;1.00;1.00;;;;;20.87;55.09;100632.97;5077879;27;46663;-70
2022/09/09 10:04:15;;;;;;;;;4.67;3.00;;;;;21.07;55.07;100649.09;5070929;27;45493;-71
2022/09/09 10:06:41;;;;;;;;;3.00;2.00;;;;;21.12;54.93;100643.88;5047827;27;45592;-74
2022/09/09 10:09:25;;;;;;;;;4.00;2.33;;;;;20.07;54.36;100464.13;5073085;27;45506;-72
2022/09/09 10:12:29;;;;;;;;;3.00;1.33;;;;;21.24;54.08;100638.66;5096694;27;45375;-71
2022/09/09 10:15:05;;;;;;;;;2.00;2.00;;;;;21.29;53.82;100652.34;4999339;28;46262;-74
2022/09/09 10:18:12;;;;;;;;;2.67;2.00;;;;;21.29;53.79;100655.06;5090016;27;45607;-73
2022/09/09 10:20:56;;;;;;;;;3.33;3.00;;;;;21.31;53.80;100661.06;5099966;27;45338;-72
2022/09/09 10:23:43;;;;;;;;;1.67;1.33;;;;;21.28;53.56;100642.56;5081208;27;47406;-74
2022/09/09 10:26:31;;;;;;;;;2.00;1.33;;;;;21.39;53.30;100658.09;5081678;27;45470;-74
2022/09/09 10:29:21;;;;;;;;;18.33;15.67;;;;;21.53;53.15;100664.28;5100935;27;45371;-73
2022/09/09 10:32:00;;;;;;;;;1.00;1.00;;;;;21.50;52.71;100643.91;5101124;27;45554;-75
2022/09/09 10:34:49;;;;;;;;;2.33;2.00;;;;;21.61;53.17;100655.06;5082040;27;48176;-73
2022/09/09 10:37:48;;;;;;;;;3.00;3.00;;;;;21.15;53.11;100564.22;5082346;27;46400;-75
2022/09/09 10:40:32;;;;;;;;;1.33;1.33;;;;;21.73;53.08;100643.31;5100675;27;45404;-73
2022/09/09 10:43:15;;;;;;;;;5.00;3.00;;;;;21.83;52.80;100650.97;5100381;27;45296;-73
2022/09/09 10:45:48;;;;;;;;;4.00;2.00;;;;;21.74;53.15;100649.56;5081960;27;48444;-75
2022/09/09 10:48:37;;;;;;;;;1.00;1.00;;;;;21.65;53.47;100645.47;5100214;27;45435;-75
2022/09/09 10:51:10;;;;;;;;;1.00;1.00;;;;;21.83;52.93;100653.66;5101179;27;45351;-72
2022/09/09 10:54:27;;;;;;;;;1.33;1.33;;;;;21.84;53.16;100645.31;5082131;27;45429;-74
2022/09/09 10:57:03;;;;;;;;;2.33;1.00;;;;;22.02;53.29;100651.81;5016743;28;45839;-72
2022/09/09 10:59:37;;;;;;;;;1.67;0.67;;;;;21.98;52.15;100634.38;5017146;28;45538;-73
2022/09/09 11:02:19;;;;;;;;;3.67;2.33;;;;;21.94;52.08;100628.56;5066748;27;45576;-74
2022/09/09 11:05:00;;;;;;;;;6.00;6.00;;;;;22.06;52.29;100648.50;5081801;27;45454;-74
2022/09/09 11:07:35;;;;;;;;;3.00;1.00;;;;;22.02;53.13;100646.41;5098478;27;46378;-74
2022/09/09 11:10:07;;;;;;;;;1.00;1.00;;;;;21.92;54.56;100640.69;5081559;27;45493;-73
2022/09/09 11:12:37;;;;;;;;;1.00;1.00;;;;;21.46;55.07;100571.53;5099692;27;45475;-74
2022/09/09 11:15:17;;;;;;;;;2.00;2.00;;;;;22.01;54.98;100655.59;5100115;27;45379;-74
2022/09/09 11:17:52;;;;;;;;;2.00;1.00;;;;;21.89;54.77;100617.59;5098871;27;46430;-72
2022/09/09 11:20:18;;;;;;;;;2.25;1.00;;;;;22.01;53.50;100623.94;5081981;27;45936;-73
2022/09/09 11:23:05;;;;;;;;;4.00;2.00;;;;;22.18;53.03;100635.06;5103978;27;45467;-73
2022/09/09 11:25:30;;;;;;;;;1.67;1.00;;;;;22.30;52.49;100636.00;5084732;27;45181;-74
2022/09/09 11:28:44;;;;;;;;;1.00;0.00;;;;;21.63;51.04;100532.06;5081730;27;47951;-73
2022/09/09 11:31:31;;;;;;;;;2.33;1.00;;;;;22.46;51.09;100650.84;5100093;27;45488;-74
2022/09/09 11:34:18;;;;;;;;;1.00;1.00;;;;;22.34;50.29;100620.94;5082177;27;45361;-74
2022/09/09 11:36:59;;;;;;;;;3.67;2.67;;;;;22.44;50.01;100633.97;5081670;27;45329;-75
2022/09/09 11:39:35;;;;;;;;;1.75;1.00;;;;;22.52;50.21;100636.38;5099764;27;46550;-72
2022/09/09 11:42:13;;;;;;;;;1.00;1.00;;;;;22.60;50.09;100659.63;5080977;27;45421;-73
2022/09/09 11:44:39;;;;;;;;;1.67;1.67;;;;;22.66;50.11;100658.75;5099586;27;45522;-74
2022/09/09 11:47:19;;;;;;;;;2.33;1.00;;;;;22.64;52.11;100656.28;5081237;27;45295;-72